createdAt,value
2023-01-09T00:01:52.316Z,94329.38
2023-01-09T00:04:20.369Z,94354.19
2023-01-09T00:06:53.872Z,94266.13
2023-01-09T00:09:22.122Z,94372.44
2023-01-09T00:11:50.199Z,94347.63
2023-01-09T00:14:18.866Z,94372.00
2023-01-09T00:16:47.942Z,94388.34
2023-01-09T00:19:15.575Z,94375.47
2023-01-09T00:21:43.189Z,94302.16
2023-01-09T00:24:10.838Z,94350.69
2023-01-09T00:26:38.505Z,94380.31
2023-01-09T00:29:10.964Z,94328.09
2023-01-09T00:31:38.622Z,94344.25
2023-01-09T00:34:10.353Z,94308.88
2023-01-09T00:36:38.010Z,94287.19
2023-01-09T00:39:06.249Z,94368.13
2023-01-09T00:41:37.240Z,94359.13
2023-01-09T00:44:11.970Z,94278.16
2023-01-09T00:46:43.997Z,94380.63
2023-01-09T00:49:14.550Z,94354.69
2023-01-09T00:51:45.336Z,94345.63
2023-01-09T00:54:16.421Z,94380.69
2023-01-09T00:56:44.529Z,94380.91
2023-01-09T00:59:12.153Z,94369.09
2023-01-09T01:01:40.000Z,94270.06
2023-01-09T01:04:21.695Z,94344.47
2023-01-09T01:07:08.303Z,94351.22
2023-01-09T01:09:35.970Z,94361.25
2023-01-09T01:12:06.993Z,94354.56
2023-01-09T01:14:34.870Z,94354.56
2023-01-09T01:17:02.769Z,94345.25
2023-01-09T01:19:30.449Z,94352.91
2023-01-09T01:21:59.488Z,94324.59
2023-01-09T01:24:27.159Z,94339.09
2023-01-09T01:26:54.805Z,94274.81
2023-01-09T01:29:22.476Z,94326.69
2023-01-09T01:31:50.161Z,94297.03
2023-01-09T01:34:17.820Z,94342.44
2023-01-09T01:36:45.563Z,94344.78
2023-01-09T01:39:14.576Z,94339.84
2023-01-09T01:41:42.427Z,94351.34
2023-01-09T01:44:43.325Z,94351.91
2023-01-09T01:47:11.090Z,94361.78
2023-01-09T01:49:38.816Z,94355.31
2023-01-09T01:52:06.791Z,94351.34
2023-01-09T01:54:35.836Z,94315.03
2023-01-09T01:57:06.931Z,94319.38
2023-01-09T01:59:37.968Z,94332.81
2023-01-09T02:02:06.443Z,94337.19
2023-01-09T02:04:36.395Z,94218.59
2023-01-09T02:07:08.602Z,94259.72
2023-01-09T02:09:38.611Z,94334.59
2023-01-09T02:12:17.043Z,94272.03
2023-01-09T02:14:47.290Z,94348.97
2023-01-09T02:17:29.728Z,94333.25
2023-01-09T02:20:25.099Z,94342.53
2023-01-09T02:23:01.407Z,94325.47
2023-01-09T02:25:51.256Z,94341.56
2023-01-09T02:28:46.170Z,94349.91
2023-01-09T02:31:21.318Z,94346.00
2023-01-09T02:34:00.002Z,94318.81
2023-01-09T02:36:35.425Z,94235.19
2023-01-09T02:39:17.078Z,94349.69
2023-01-09T02:41:51.022Z,94334.81
2023-01-09T02:44:22.440Z,94343.56
2023-01-09T02:47:03.633Z,94346.66
2023-01-09T02:49:32.755Z,94237.13
2023-01-09T02:52:14.139Z,94234.44
2023-01-09T02:54:57.222Z,94318.09
2023-01-09T02:57:35.598Z,94227.63
2023-01-09T03:00:11.900Z,94220.56
2023-01-09T03:02:52.020Z,94245.28
2023-01-09T03:05:24.608Z,94330.28
2023-01-09T03:07:59.675Z,94341.63
2023-01-09T03:10:34.285Z,94274.78
2023-01-09T03:13:03.963Z,94333.84
2023-01-09T03:15:35.751Z,94333.84
2023-01-09T03:18:06.727Z,94311.09
2023-01-09T03:20:35.268Z,94328.41
2023-01-09T03:23:05.524Z,94323.13
2023-01-09T03:25:33.877Z,94314.63
2023-01-09T03:28:03.151Z,94287.72
2023-01-09T03:30:33.794Z,94322.91
2023-01-09T03:33:01.510Z,94331.66
2023-01-09T03:35:30.495Z,94324.88
2023-01-09T03:37:58.993Z,94303.31
2023-01-09T03:40:26.838Z,94326.34
2023-01-09T03:42:54.460Z,94331.00
2023-01-09T03:45:22.276Z,94327.41
2023-01-09T03:47:52.274Z,94328.88
2023-01-09T03:50:20.851Z,94327.91
2023-01-09T03:52:49.921Z,94226.72
2023-01-09T03:55:17.790Z,94319.47
2023-01-09T03:57:45.448Z,94328.97
2023-01-09T04:00:14.223Z,94325.06
2023-01-09T04:02:42.423Z,94261.59
2023-01-09T04:05:10.347Z,94219.38
2023-01-09T04:07:38.007Z,94247.75
2023-01-09T04:10:07.725Z,94290.34
2023-01-09T04:12:35.369Z,94326.44
2023-01-09T04:15:03.030Z,94377.09
2023-01-09T04:17:30.726Z,94337.28
2023-01-09T04:19:59.166Z,94344.72
2023-01-09T04:22:26.826Z,94337.09
2023-01-09T04:24:54.457Z,94322.41
2023-01-09T04:27:23.557Z,94360.91
2023-01-09T04:29:51.185Z,94341.75
2023-01-09T04:32:18.816Z,94374.19
2023-01-09T04:34:46.473Z,94379.56
2023-01-09T04:37:14.484Z,94377.78
2023-01-09T04:39:44.313Z,94389.56
2023-01-09T04:42:12.202Z,94322.41
2023-01-09T04:44:41.222Z,94402.16
2023-01-09T04:47:08.875Z,94391.63
2023-01-09T04:49:36.581Z,94409.59
2023-01-09T04:52:04.457Z,94311.19
2023-01-09T04:54:32.132Z,94410.09
2023-01-09T04:56:59.771Z,94275.00
2023-01-09T04:59:27.407Z,94325.66
2023-01-09T05:01:58.341Z,94425.06
2023-01-09T05:04:26.193Z,94401.19
2023-01-09T05:06:53.894Z,94379.25
2023-01-09T05:09:21.993Z,94361.19
2023-01-09T05:11:50.209Z,94342.38
2023-01-09T05:14:18.246Z,94449.47
2023-01-09T05:16:46.020Z,94408.88
2023-01-09T05:19:15.217Z,94469.66
2023-01-09T05:21:42.868Z,94466.63
2023-01-09T05:24:10.529Z,94440.59
2023-01-09T05:26:38.162Z,94474.13
2023-01-09T05:29:05.802Z,94477.13
2023-01-09T05:31:34.537Z,94502.38
2023-01-09T05:34:02.200Z,94484.13
2023-01-09T05:36:31.248Z,94506.25
2023-01-09T05:38:58.875Z,94492.63
2023-01-09T05:41:26.629Z,94383.19
2023-01-09T05:43:54.459Z,94467.84
2023-01-09T05:46:22.113Z,94523.81
2023-01-09T05:48:49.883Z,94452.31
2023-01-09T05:51:20.390Z,94535.19
2023-01-09T05:53:49.824Z,94525.38
2023-01-09T05:56:17.636Z,94517.19
2023-01-09T05:58:45.287Z,94537.19
2023-01-09T06:01:16.934Z,94553.13
2023-01-09T06:03:44.589Z,94421.34
2023-01-09T06:06:12.311Z,94538.09
2023-01-09T06:08:40.147Z,94332.00
2023-01-09T06:11:09.716Z,94468.09
2023-01-09T06:13:37.328Z,94501.78
2023-01-09T06:16:07.771Z,94562.84
2023-01-09T06:18:35.474Z,94493.28
2023-01-09T06:21:03.099Z,94540.06
2023-01-09T06:23:30.716Z,94556.28
2023-01-09T06:25:58.434Z,94586.75
2023-01-09T06:28:27.711Z,94577.06
2023-01-09T06:30:55.389Z,94599.94
2023-01-09T06:33:23.178Z,94604.78
2023-01-09T06:35:50.843Z,94565.06
2023-01-09T06:38:18.518Z,94615.09
2023-01-09T06:40:46.349Z,94528.81
2023-01-09T06:43:13.994Z,94534.66
2023-01-09T06:45:44.674Z,94630.03
2023-01-09T06:48:13.399Z,94618.94
2023-01-09T06:50:41.636Z,94521.81
2023-01-09T06:53:10.609Z,94637.84
2023-01-09T06:55:38.536Z,94544.16
2023-01-09T06:58:06.177Z,94608.19
2023-01-09T07:00:34.037Z,94547.03
2023-01-09T07:03:03.164Z,94475.97
2023-01-09T07:05:31.261Z,94561.06
2023-01-09T07:07:58.899Z,94658.31
2023-01-09T07:10:26.529Z,94677.22
2023-01-09T07:12:54.179Z,94676.78
2023-01-09T07:15:21.804Z,94658.31
2023-01-09T07:17:50.004Z,94662.69
2023-01-09T07:20:19.427Z,94596.59
2023-01-09T07:22:47.730Z,94649.97
2023-01-09T07:25:15.399Z,94608.91
2023-01-09T07:27:43.298Z,94666.75
2023-01-09T07:30:12.250Z,94657.88
2023-01-09T07:32:41.078Z,94722.50
2023-01-09T07:35:09.950Z,94734.81
2023-01-09T07:37:38.990Z,94674.34
2023-01-09T07:40:07.902Z,94751.84
2023-01-09T07:42:35.567Z,94756.25
2023-01-09T07:45:04.704Z,94739.94
2023-01-09T07:47:32.402Z,94765.06
2023-01-09T07:50:00.040Z,94689.69
2023-01-09T07:52:27.958Z,94689.41
2023-01-09T07:54:56.957Z,94735.19
2023-01-09T07:57:24.587Z,94743.06
2023-01-09T07:59:52.237Z,94748.09
2023-01-09T08:02:20.018Z,94773.31
2023-01-09T08:04:47.720Z,94768.63
2023-01-09T08:07:15.425Z,94778.72
2023-01-09T08:09:43.074Z,94658.56
2023-01-09T08:12:12.075Z,94771.94
2023-01-09T08:14:39.755Z,94670.34
2023-01-09T08:17:09.312Z,94742.13
2023-01-09T08:19:36.956Z,94766.91
2023-01-09T08:22:04.667Z,94676.44
2023-01-09T08:24:32.810Z,94756.25
2023-01-09T08:27:00.548Z,94794.16
2023-01-09T08:29:30.350Z,94807.53
2023-01-09T08:31:58.111Z,94768.88
2023-01-09T08:34:25.740Z,94806.38
2023-01-09T08:36:54.137Z,94794.91
2023-01-09T08:39:21.782Z,94784.88
2023-01-09T08:42:06.882Z,94816.00
2023-01-09T08:44:53.191Z,94833.25
2023-01-09T08:47:24.397Z,94802.69
2023-01-09T08:49:52.097Z,94712.38
2023-01-09T08:52:19.750Z,94727.22
2023-01-09T08:54:47.432Z,94834.91
2023-01-09T08:57:15.076Z,94778.66
2023-01-09T08:59:44.208Z,94816.06
2023-01-09T09:02:11.830Z,94831.94
2023-01-09T09:04:39.531Z,94829.91
2023-01-09T09:07:07.505Z,94748.91
2023-01-09T09:09:35.199Z,94823.03
2023-01-09T09:12:02.856Z,94837.59
2023-01-09T09:14:48.047Z,94827.13
2023-01-09T09:17:17.025Z,94803.66
2023-01-09T09:19:44.709Z,94722.00
2023-01-09T09:22:12.373Z,94798.63
2023-01-09T09:24:40.027Z,94809.44
2023-01-09T09:27:07.917Z,94789.16
2023-01-09T09:29:35.539Z,94783.66
2023-01-09T09:32:03.197Z,94719.31
2023-01-09T09:34:32.222Z,94821.59
2023-01-09T09:36:59.916Z,94806.47
2023-01-09T09:39:27.606Z,94835.16
2023-01-09T09:42:45.626Z,94828.41
2023-01-09T09:45:26.424Z,94811.50
2023-01-09T09:48:05.307Z,94814.94
2023-01-09T09:50:58.888Z,94715.03
2023-01-09T09:53:30.724Z,94840.31
2023-01-09T09:55:58.573Z,94725.13
2023-01-09T09:58:32.593Z,94809.56
2023-01-09T10:01:02.486Z,94820.84
2023-01-09T10:03:36.356Z,94760.22
2023-01-09T10:06:11.831Z,94848.91
2023-01-09T10:08:48.807Z,94845.56
2023-01-09T10:11:21.536Z,94843.94
2023-01-09T10:14:13.190Z,94748.13
2023-01-09T10:17:04.276Z,94807.78
2023-01-09T10:19:47.631Z,94819.72
2023-01-09T10:22:26.614Z,94817.88
2023-01-09T10:25:03.153Z,94828.41
2023-01-09T10:27:45.302Z,94811.13
2023-01-09T10:30:26.981Z,94823.84
2023-01-09T10:33:03.329Z,94801.22
2023-01-09T10:36:05.788Z,94723.22
2023-01-09T10:38:39.665Z,94789.47
2023-01-09T10:41:12.362Z,94810.97
2023-01-09T10:43:45.752Z,94832.66
2023-01-09T10:46:20.435Z,94832.59
2023-01-09T10:48:53.179Z,94832.09
2023-01-09T10:51:22.955Z,94835.44
2023-01-09T10:53:54.223Z,94828.69
2023-01-09T10:56:25.093Z,94821.88
2023-01-09T10:58:54.015Z,94831.31
2023-01-09T11:01:26.929Z,94747.63
2023-01-09T11:03:54.973Z,94837.03
2023-01-09T11:06:27.048Z,94810.97
2023-01-09T11:09:00.004Z,94823.94
2023-01-09T11:11:36.127Z,94717.94
2023-01-09T11:14:14.557Z,94837.09
2023-01-09T11:16:52.761Z,94740.69
2023-01-09T11:19:20.575Z,94826.41
2023-01-09T11:21:48.503Z,94762.56
2023-01-09T11:24:29.617Z,94818.19
2023-01-09T11:27:23.415Z,94815.53
2023-01-09T11:30:26.214Z,94815.88
2023-01-09T11:32:54.800Z,94823.44
2023-01-09T11:35:27.650Z,94818.34
2023-01-09T11:38:06.267Z,94816.91
2023-01-09T11:40:45.709Z,94819.78
2023-01-09T11:43:17.952Z,94819.44
2023-01-09T11:46:00.174Z,94811.38
2023-01-09T11:48:32.165Z,94819.44
2023-01-09T11:51:01.530Z,94813.94
2023-01-09T11:53:29.795Z,94704.84
2023-01-09T11:56:02.099Z,94807.19
2023-01-09T11:58:33.291Z,94814.50
2023-01-09T12:01:13.487Z,94786.50
2023-01-09T12:04:03.925Z,94834.56
2023-01-09T12:06:43.487Z,94819.59
2023-01-09T12:09:19.439Z,94811.44
2023-01-09T12:11:55.839Z,94802.16
2023-01-09T12:14:46.065Z,94822.06
2023-01-09T12:17:38.147Z,94819.88
2023-01-09T12:20:33.771Z,94821.31
2023-01-09T12:23:14.127Z,94819.31
2023-01-09T12:25:51.274Z,94828.38
2023-01-09T12:28:53.842Z,94824.47
2023-01-09T12:31:37.286Z,94828.88
2023-01-09T12:34:22.973Z,94834.19
2023-01-09T12:37:01.786Z,94826.25
2023-01-09T12:39:44.308Z,94819.88
2023-01-09T12:42:31.873Z,94806.06
2023-01-09T12:45:06.977Z,94836.34
2023-01-09T12:47:53.351Z,94829.53
2023-01-09T12:50:36.381Z,94833.78
2023-01-09T12:53:11.369Z,94756.81
2023-01-09T12:55:44.092Z,94834.84
2023-01-09T12:58:18.712Z,94831.44
2023-01-09T13:00:51.601Z,94817.75
2023-01-09T13:03:25.968Z,94802.00
2023-01-09T13:05:54.378Z,94832.69
2023-01-09T13:08:26.959Z,94834.47
2023-01-09T13:11:01.578Z,94823.84
2023-01-09T13:13:40.991Z,94738.34
2023-01-09T13:16:15.795Z,94820.53
2023-01-09T13:18:48.085Z,94724.19
2023-01-09T13:21:16.537Z,94779.56
2023-01-09T13:23:51.059Z,94802.81
2023-01-09T13:26:23.022Z,94798.19
2023-01-09T13:28:54.539Z,94784.28
2023-01-09T13:31:38.242Z,94747.56
2023-01-09T13:34:21.551Z,94821.81
2023-01-09T13:36:52.228Z,94807.13
2023-01-09T13:39:27.088Z,94738.72
2023-01-09T13:42:16.868Z,94715.34
2023-01-09T13:44:45.606Z,94798.56
2023-01-09T13:47:19.918Z,94810.88
2023-01-09T13:50:02.988Z,94767.44
2023-01-09T13:52:33.804Z,94716.84
2023-01-09T13:55:24.918Z,94814.06
2023-01-09T13:58:24.481Z,94811.53
2023-01-09T14:01:25.015Z,94806.13
2023-01-09T14:04:43.043Z,94814.69
2023-01-09T14:07:21.433Z,94812.06
2023-01-09T14:09:54.147Z,94747.44
2023-01-09T14:12:23.203Z,94815.72
2023-01-09T14:14:53.687Z,94831.78
2023-01-09T14:17:28.813Z,94739.16
2023-01-09T14:20:00.631Z,94821.16
2023-01-09T14:22:38.010Z,94823.50
2023-01-09T14:28:10.454Z,94811.31
2023-01-09T14:31:10.544Z,94824.56
2023-01-09T14:33:38.539Z,94825.91
2023-01-09T14:36:19.465Z,94820.63
2023-01-09T14:38:49.230Z,94835.53
2023-01-09T14:41:43.804Z,94838.66
2023-01-09T14:44:24.370Z,94850.34
2023-01-09T14:46:54.291Z,94840.56
2023-01-09T14:49:32.902Z,94848.63
2023-01-09T14:52:04.984Z,94848.13
2023-01-09T14:54:35.610Z,94738.00
2023-01-09T14:57:03.257Z,94854.00
2023-01-09T14:59:30.917Z,94756.19
2023-01-09T15:02:00.503Z,94860.63
2023-01-09T15:04:34.833Z,94864.66
2023-01-09T15:07:03.208Z,94866.44
2023-01-09T15:09:38.147Z,94834.25
2023-01-09T15:12:09.380Z,94817.00
2023-01-09T15:14:41.002Z,94871.50
2023-01-09T15:17:20.516Z,94870.00
2023-01-09T15:19:49.312Z,94867.50
2023-01-09T15:22:26.272Z,94860.84
2023-01-09T15:24:54.037Z,94832.47
2023-01-09T15:27:23.358Z,94864.47
2023-01-09T15:29:51.467Z,94866.84
2023-01-09T15:32:25.151Z,94760.47
2023-01-09T15:34:55.016Z,94846.56
2023-01-09T15:37:29.716Z,94868.19
2023-01-09T15:39:58.860Z,94799.81
2023-01-09T15:42:47.034Z,94808.03
2023-01-09T15:45:22.860Z,94873.66
2023-01-09T15:48:16.019Z,94856.22
2023-01-09T15:50:44.520Z,94877.59
2023-01-09T15:53:15.692Z,94887.22
2023-01-09T15:55:43.912Z,94893.47
2023-01-09T15:58:27.099Z,94912.41
2023-01-09T16:01:25.728Z,94899.09
2023-01-09T16:03:55.661Z,94904.66
2023-01-09T16:06:28.505Z,94846.31
2023-01-09T16:08:59.228Z,94908.84
2023-01-09T16:11:32.140Z,94870.63
2023-01-09T16:14:10.863Z,94902.28
2023-01-09T16:16:38.755Z,94911.47
2023-01-09T16:19:45.102Z,94918.81
2023-01-09T16:22:21.984Z,94931.19
2023-01-09T16:24:53.461Z,94934.28
2023-01-09T16:27:27.070Z,94928.59
2023-01-09T16:29:58.195Z,94791.38
2023-01-09T16:32:29.465Z,94904.63
2023-01-09T16:35:05.520Z,94844.22
2023-01-09T16:37:34.665Z,94925.09
2023-01-09T16:40:27.000Z,94939.78
2023-01-09T16:43:03.593Z,94944.28
2023-01-09T16:45:36.370Z,94944.03
2023-01-09T16:48:13.236Z,94946.34
2023-01-09T16:50:42.487Z,94917.28
2023-01-09T16:53:15.497Z,94869.13
2023-01-09T16:55:43.215Z,94928.47
2023-01-09T16:58:17.650Z,94957.19
2023-01-09T17:00:46.306Z,94938.47
2023-01-09T17:03:15.738Z,94967.59
2023-01-09T17:05:47.987Z,94974.44
2023-01-09T17:08:22.125Z,94966.59
2023-01-09T17:10:50.082Z,94848.94
2023-01-09T17:13:17.728Z,94986.97
2023-01-09T17:15:45.915Z,94992.28
2023-01-09T17:18:15.809Z,94957.56
2023-01-09T17:20:47.296Z,94983.19
2023-01-09T17:23:15.872Z,94999.16
2023-01-09T17:26:02.056Z,94922.97
2023-01-09T17:28:33.399Z,95003.28
2023-01-09T17:31:01.728Z,94985.34
2023-01-09T17:33:29.440Z,94925.44
2023-01-09T17:35:58.597Z,95020.34
2023-01-09T17:38:26.498Z,95021.09
2023-01-09T17:40:55.776Z,95025.78
2023-01-09T17:43:23.485Z,95040.50
2023-01-09T17:45:51.837Z,94918.97
2023-01-09T17:48:21.707Z,95046.22
2023-01-09T17:50:50.522Z,95034.03
2023-01-09T17:53:22.553Z,95043.44
2023-01-09T17:55:50.264Z,95058.88
2023-01-09T17:58:26.051Z,95064.66
2023-01-09T18:00:57.279Z,95021.34
2023-01-09T18:03:33.369Z,94932.63
2023-01-09T18:06:01.586Z,95055.28
2023-01-09T18:08:30.940Z,95063.59
2023-01-09T18:11:02.149Z,94951.94
2023-01-09T18:13:29.896Z,95073.03
2023-01-09T18:15:57.598Z,95068.91
2023-01-09T18:18:25.483Z,95068.13
2023-01-09T18:20:53.676Z,94970.53
2023-01-09T18:23:22.104Z,95028.47
2023-01-09T18:25:51.202Z,95079.94
2023-01-09T18:28:18.930Z,95084.63
2023-01-09T18:30:47.803Z,95086.19
2023-01-09T18:33:17.359Z,95092.16
2023-01-09T18:35:45.946Z,95079.41
2023-01-09T18:38:13.694Z,95095.84
2023-01-09T18:40:41.689Z,95102.34
2023-01-09T18:43:11.463Z,95109.19
2023-01-09T18:45:39.449Z,95118.09
2023-01-09T18:48:07.514Z,95111.81
2023-01-09T18:50:35.379Z,95109.22
2023-01-09T18:53:03.086Z,95108.69
2023-01-09T18:55:30.770Z,95085.19
2023-01-09T18:57:58.398Z,95128.03
2023-01-09T19:00:27.543Z,95117.81
2023-01-09T19:02:55.272Z,95129.56
2023-01-09T19:05:25.409Z,95101.59
2023-01-09T19:07:53.175Z,95137.41
2023-01-09T19:10:21.104Z,95153.59
2023-01-09T19:12:48.790Z,95162.22
2023-01-09T19:15:16.587Z,95142.09
2023-01-09T19:17:46.876Z,95150.72
2023-01-09T19:20:14.697Z,95158.56
2023-01-09T19:22:42.613Z,95160.41
2023-01-09T19:25:12.433Z,95123.56
2023-01-09T19:27:40.130Z,95146.28
2023-01-09T19:30:09.833Z,95122.25
2023-01-09T19:32:38.354Z,95171.91
2023-01-09T19:35:08.064Z,95171.91
2023-01-09T19:37:37.216Z,95159.84
2023-01-09T19:40:05.772Z,95137.38
2023-01-09T19:42:33.608Z,95154.63
2023-01-09T19:45:01.466Z,95192.03
2023-01-09T19:47:29.176Z,95183.91
2023-01-09T19:49:56.902Z,95190.97
2023-01-09T19:52:25.917Z,95157.50
2023-01-09T19:54:54.695Z,95213.47
2023-01-09T19:57:22.424Z,95210.53
2023-01-09T19:59:50.227Z,95211.84
2023-01-09T20:02:18.073Z,95215.75
2023-01-09T20:04:46.936Z,95229.59
2023-01-09T20:07:17.189Z,95197.91
2023-01-09T20:09:46.260Z,95238.19
2023-01-09T20:12:13.920Z,95176.97
2023-01-09T20:14:41.562Z,95215.09
2023-01-09T20:17:09.214Z,95214.03
2023-01-09T20:19:36.872Z,95238.56
2023-01-09T20:22:04.691Z,95251.94
2023-01-09T20:24:32.462Z,95230.50
2023-01-09T20:27:01.619Z,95233.59
2023-01-09T20:29:29.487Z,95222.09
2023-01-09T20:31:57.160Z,95246.41
2023-01-09T20:34:24.868Z,95255.13
2023-01-09T20:36:54.474Z,95255.38
2023-01-09T20:39:22.383Z,95260.81
2023-01-09T20:41:50.081Z,95254.44
2023-01-09T20:44:19.451Z,95243.56
2023-01-09T20:46:48.128Z,95282.03
2023-01-09T20:49:18.430Z,95281.47
2023-01-09T20:51:47.929Z,95279.47
2023-01-09T20:54:16.452Z,95276.81
2023-01-09T20:56:44.290Z,95287.31
2023-01-09T20:59:13.864Z,95288.53
2023-01-09T21:01:46.381Z,95287.47
2023-01-09T21:04:14.130Z,95258.69
2023-01-09T21:06:42.476Z,95247.41
2023-01-09T21:09:10.488Z,95286.78
2023-01-09T21:11:38.240Z,95258.88
2023-01-09T21:14:07.023Z,95295.31
2023-01-09T21:16:34.722Z,95294.03
2023-01-09T21:19:03.796Z,95300.28
2023-01-09T21:21:31.527Z,95246.03
2023-01-09T21:24:00.503Z,95288.50
2023-01-09T21:26:30.551Z,95315.44
2023-01-09T21:29:00.593Z,95311.78
2023-01-09T21:31:34.454Z,95316.19
2023-01-09T21:34:06.239Z,95314.91
2023-01-09T21:36:35.158Z,95313.56
2023-01-09T21:39:03.042Z,95321.84
2023-01-09T21:41:48.272Z,95331.78
2023-01-09T21:44:33.541Z,95333.59
2023-01-09T21:47:03.513Z,95337.28
2023-01-09T21:49:34.972Z,95277.50
2023-01-09T21:52:03.487Z,95343.47
2023-01-09T21:54:31.804Z,95336.16
2023-01-09T21:57:00.235Z,95334.06
2023-01-09T21:59:29.551Z,95340.88
2023-01-09T22:01:57.454Z,95340.56
2023-01-09T22:04:27.989Z,95332.50
2023-01-09T22:06:57.557Z,95341.16
2023-01-09T22:09:25.258Z,95319.00
2023-01-09T22:11:52.987Z,95302.63
2023-01-09T22:14:21.268Z,95362.28
2023-01-09T22:16:49.514Z,95351.22
2023-01-09T22:19:18.298Z,95349.66
2023-01-09T22:21:46.373Z,95366.44
2023-01-09T22:24:17.598Z,95378.47
2023-01-09T22:26:45.945Z,95380.00
2023-01-09T22:29:13.651Z,95383.66
2023-01-09T22:31:42.960Z,95388.97
2023-01-09T22:34:15.284Z,95383.91
2023-01-09T22:36:43.337Z,95389.50
2023-01-09T22:39:13.339Z,95391.97
2023-01-09T22:41:42.626Z,95382.63
2023-01-09T22:44:11.110Z,95346.94
2023-01-09T22:46:38.890Z,95402.53
2023-01-09T22:49:06.543Z,95409.34
2023-01-09T22:51:34.212Z,95409.88
2023-01-09T22:54:02.389Z,95411.47
2023-01-09T22:56:32.155Z,95406.81
2023-01-09T22:59:01.232Z,95407.06
2023-01-09T23:01:29.219Z,95403.63
2023-01-09T23:03:56.917Z,95402.88
2023-01-09T23:06:25.524Z,95406.25
2023-01-09T23:08:53.770Z,95411.00
2023-01-09T23:11:38.757Z,95411.94
2023-01-09T23:14:07.758Z,95412.47
2023-01-09T23:16:35.458Z,95420.91
2023-01-09T23:19:03.183Z,95429.81
2023-01-09T23:21:30.864Z,95429.25
2023-01-09T23:23:58.548Z,95426.06
2023-01-09T23:26:26.256Z,95393.81
2023-01-09T23:28:53.872Z,95436.81
2023-01-09T23:31:23.262Z,95413.44
2023-01-09T23:33:50.939Z,95437.31
2023-01-09T23:36:18.537Z,95437.53
2023-01-09T23:38:46.247Z,95436.25
2023-01-09T23:41:13.914Z,95397.88
2023-01-09T23:43:41.350Z,95451.97
2023-01-09T23:46:09.009Z,95436.91
2023-01-09T23:48:40.185Z,95405.94
2023-01-09T23:51:07.832Z,95444.31
2023-01-09T23:53:35.474Z,95442.16
2023-01-09T23:56:03.292Z,95439.63
2023-01-09T23:58:31.296Z,95449.47
